Time,TemperatureF,DewpointF,PressureIn,WindDirection,WindDirectionDegrees,WindSpeedMPH,WindSpeedGustMPH,Humidity,HourlyPrecipIn,Conditions,Clouds,dailyrainin,SoftwareType,DateUTC
2013-02-18 00:11:00,12.0,5.6,29.98,North,0,9.9,-999.0,75,-99.99,,,0.00,Acu-Link.com,2013-02-18 05:11:00,
2013-02-18 00:26:00,11.8,4.5,29.98,WNW,292,6.8,-999.0,72,-99.99,,,0.00,Acu-Link.com,2013-02-18 05:26:00,
2013-02-18 00:41:00,11.7,5.6,29.98,WSW,247,2.7,-999.0,76,-99.99,,,0.00,Acu-Link.com,2013-02-18 05:41:00,
2013-02-18 00:56:00,10.9,4.8,30.00,NNW,337,5.3,-999.0,76,-99.99,,,0.00,Acu-Link.com,2013-02-18 05:56:00,
2013-02-18 01:11:00,10.0,4.0,30.01,NE,45,5.3,-999.0,76,-99.99,,,0.00,Acu-Link.com,2013-02-18 06:11:00,
2013-02-18 01:26:00,9.5,2.9,30.01,West,270,4.7,-999.0,74,-99.99,,,0.00,Acu-Link.com,2013-02-18 06:26:00,
2013-02-18 01:41:00,9.5,2.6,30.02,West,270,2.7,-999.0,73,-99.99,,,0.00,Acu-Link.com,2013-02-18 06:41:00,
2013-02-18 01:56:00,8.8,1.0,30.04,NW,315,3.7,-999.0,70,-99.99,,,0.00,Acu-Link.com,2013-02-18 06:56:00,
2013-02-18 02:12:00,8.2,0.5,30.03,NW,315,4.7,-999.0,70,-99.99,,,0.00,Acu-Link.com,2013-02-18 07:12:00,
2013-02-18 02:27:00,7.7,0.0,30.05,West,270,7.8,-999.0,70,-99.99,,,0.00,Acu-Link.com,2013-02-18 07:27:00,
2013-02-18 02:42:00,7.2,-0.8,30.06,WNW,292,1.1,-999.0,69,-99.99,,,0.00,Acu-Link.com,2013-02-18 07:42:00,
2013-02-18 02:57:00,6.8,-1.2,30.05,WNW,292,2.7,-999.0,69,-99.99,,,0.00,Acu-Link.com,2013-02-18 07:57:00,
2013-02-18 03:12:00,6.4,-1.0,30.06,NNW,337,3.7,-999.0,71,-99.99,,,0.00,Acu-Link.com,2013-02-18 08:12:00,
2013-02-18 03:27:00,6.1,-1.6,30.07,NW,315,2.7,-999.0,70,-99.99,,,0.00,Acu-Link.com,2013-02-18 08:27:00,
2013-02-18 03:42:00,5.7,-2.2,30.07,WNW,292,2.2,-999.0,69,-99.99,,,0.00,Acu-Link.com,2013-02-18 08:42:00,
2013-02-18 03:57:00,5.2,-2.4,30.09,West,270,3.2,-999.0,70,-99.99,,,0.00,Acu-Link.com,2013-02-18 08:57:00,
2013-02-18 04:18:00,5.2,-2.4,30.08,NW,315,2.7,-999.0,70,-99.99,,,0.00,Acu-Link.com,2013-02-18 09:18:00,
2013-02-18 04:33:00,5.4,-2.2,30.10,West,270,2.2,-999.0,70,-99.99,,,0.00,Acu-Link.com,2013-02-18 09:33:00,
2013-02-18 04:48:00,5.5,-2.4,30.11,NW,315,4.2,-999.0,69,-99.99,,,0.00,Acu-Link.com,2013-02-18 09:48:00,
2013-02-18 05:03:00,5.7,-1.9,30.11,West,270,2.7,-999.0,70,-99.99,,,0.00,Acu-Link.com,2013-02-18 10:03:00,
2013-02-18 05:19:00,5.7,-1.9,30.12,West,270,3.2,-999.0,70,-99.99,,,0.00,Acu-Link.com,2013-02-18 10:19:00,
2013-02-18 05:34:00,5.9,-1.4,30.12,NW,315,4.2,-999.0,71,-99.99,,,0.00,Acu-Link.com,2013-02-18 10:34:00,
2013-02-18 05:49:00,6.1,-1.6,30.13,WNW,292,4.7,-999.0,70,-99.99,,,0.00,Acu-Link.com,2013-02-18 10:49:00,
2013-02-18 06:04:00,5.7,-1.9,30.13,WNW,292,2.7,-999.0,70,-99.99,,,0.00,Acu-Link.com,2013-02-18 11:04:00,
2013-02-18 06:20:00,5.2,-2.4,30.14,NNE,22,4.2,-999.0,70,-99.99,,,0.00,Acu-Link.com,2013-02-18 11:20:00,
2013-02-18 06:35:00,4.8,-2.5,30.15,West,270,5.3,-999.0,71,-99.99,,,0.00,Acu-Link.com,2013-02-18 11:35:00,
2013-02-18 06:50:00,4.6,-2.7,30.14,WNW,292,4.2,-999.0,71,-99.99,,,0.00,Acu-Link.com,2013-02-18 11:50:00,
2013-02-18 07:20:00,4.1,-2.6,30.16,West,270,1.7,-999.0,73,-99.99,,,0.00,Acu-Link.com,2013-02-18 12:20:00,
2013-02-18 07:35:00,4.6,-2.1,30.17,West,270,0.0,-999.0,73,-99.99,,,0.00,Acu-Link.com,2013-02-18 12:35:00,
2013-02-18 07:50:00,5.4,-1.6,30.16,SW,225,2.7,-999.0,72,-99.99,,,0.00,Acu-Link.com,2013-02-18 12:50:00,
2013-02-18 08:05:00,6.1,-1.6,30.16,West,270,2.7,-999.0,70,-99.99,,,0.00,Acu-Link.com,2013-02-18 13:05:00,
2013-02-18 08:20:00,7.7,-0.9,30.16,East,90,2.2,-999.0,67,-99.99,,,0.00,Acu-Link.com,2013-02-18 13:20:00,
2013-02-18 08:35:00,8.4,-1.6,30.17,WNW,292,1.7,-999.0,63,-99.99,,,0.00,Acu-Link.com,2013-02-18 13:35:00,
2013-02-18 08:51:00,9.9,-1.2,30.18,West,270,2.7,-999.0,60,-99.99,,,0.00,Acu-Link.com,2013-02-18 13:51:00,
2013-02-18 09:06:00,10.9,-0.9,30.18,WNW,292,3.2,-999.0,58,-99.99,,,0.00,Acu-Link.com,2013-02-18 14:06:00,
2013-02-18 09:21:00,12.0,-0.3,30.19,WNW,292,3.7,-999.0,57,-99.99,,,0.00,Acu-Link.com,2013-02-18 14:21:00,
2013-02-18 09:36:00,12.9,0.6,30.19,West,270,4.7,-999.0,57,-99.99,,,0.00,Acu-Link.com,2013-02-18 14:36:00,
2013-02-18 09:51:00,13.6,1.2,30.19,WNW,292,4.2,-999.0,57,-99.99,,,0.00,Acu-Link.com,2013-02-18 14:51:00,
2013-02-18 10:06:00,14.5,2.1,30.19,NNW,337,3.7,-999.0,57,-99.99,,,0.00,Acu-Link.com,2013-02-18 15:06:00,
2013-02-18 10:21:00,16.7,3.4,30.19,WNW,292,5.8,-999.0,55,-99.99,,,0.00,Acu-Link.com,2013-02-18 15:21:00,
2013-02-18 10:36:00,17.2,3.8,30.19,West,270,2.2,-999.0,55,-99.99,,,0.00,Acu-Link.com,2013-02-18 15:36:00,
2013-02-18 10:51:00,18.0,4.2,30.19,West,270,4.2,-999.0,54,-99.99,,,0.00,Acu-Link.com,2013-02-18 15:51:00,
2013-02-18 11:07:00,20.1,5.3,30.20,West,270,7.3,-999.0,52,-99.99,,,0.00,Acu-Link.com,2013-02-18 16:07:00,
2013-02-18 11:22:00,20.3,5.1,30.18,West,270,4.2,-999.0,51,-99.99,,,0.00,Acu-Link.com,2013-02-18 16:22:00,
2013-02-18 11:37:00,21.0,5.3,30.18,NE,45,6.3,-999.0,50,-99.99,,,0.00,Acu-Link.com,2013-02-18 16:37:00,
2013-02-18 11:52:00,21.6,5.9,30.18,NNW,337,5.8,-999.0,50,-99.99,,,0.00,Acu-Link.com,2013-02-18 16:52:00,
2013-02-18 12:07:00,21.7,5.5,30.18,West,270,6.3,-999.0,49,-99.99,,,0.00,Acu-Link.com,2013-02-18 17:07:00,
2013-02-18 12:22:00,22.1,5.9,30.16,West,270,5.3,-999.0,49,-99.99,,,0.00,Acu-Link.com,2013-02-18 17:22:00,
2013-02-18 12:37:00,23.0,6.3,30.16,WNW,292,4.7,-999.0,48,-99.99,,,0.00,Acu-Link.com,2013-02-18 17:37:00,
2013-02-18 12:52:00,23.0,6.7,30.15,West,270,5.3,-999.0,49,-99.99,,,0.00,Acu-Link.com,2013-02-18 17:52:00,
2013-02-18 13:07:00,23.9,6.6,30.15,NNW,337,6.8,-999.0,47,-99.99,,,0.00,Acu-Link.com,2013-02-18 18:07:00,
2013-02-18 13:23:00,24.1,6.3,30.15,West,270,6.8,-999.0,46,-99.99,,,0.00,Acu-Link.com,2013-02-18 18:23:00,
2013-02-18 13:38:00,24.1,5.9,30.15,West,270,6.3,-999.0,45,-99.99,,,0.00,Acu-Link.com,2013-02-18 18:38:00,
2013-02-18 14:23:00,25.0,7.2,30.15,West,270,5.8,-999.0,46,-99.99,,,0.00,Acu-Link.com,2013-02-18 19:23:00,
2013-02-18 14:38:00,25.7,6.8,30.14,WNW,292,8.9,-999.0,44,-99.99,,,0.00,Acu-Link.com,2013-02-18 19:38:00,
2013-02-18 14:53:00,25.9,7.0,30.13,West,270,2.7,-999.0,44,-99.99,,,0.00,Acu-Link.com,2013-02-18 19:53:00,
2013-02-18 15:23:00,25.7,6.8,30.13,West,270,3.7,-999.0,44,-99.99,,,0.00,Acu-Link.com,2013-02-18 20:23:00,
2013-02-18 15:39:00,25.2,7.4,30.11,NNW,337,2.2,-999.0,46,-99.99,,,0.00,Acu-Link.com,2013-02-18 20:39:00,
2013-02-18 15:54:00,24.8,6.5,30.11,WNW,292,2.2,-999.0,45,-99.99,,,0.00,Acu-Link.com,2013-02-18 20:54:00,
2013-02-18 16:09:00,25.0,7.2,30.10,West,270,3.7,-999.0,46,-99.99,,,0.00,Acu-Link.com,2013-02-18 21:09:00,
2013-02-18 16:24:00,25.0,6.7,30.09,SSW,202,2.2,-999.0,45,-99.99,,,0.00,Acu-Link.com,2013-02-18 21:24:00,
2013-02-18 16:39:00,28.0,7.9,30.08,West,270,3.7,-999.0,42,-99.99,,,0.00,Acu-Link.com,2013-02-18 21:39:00,
2013-02-18 16:54:00,27.5,7.5,30.07,West,270,2.2,-999.0,42,-99.99,,,0.00,Acu-Link.com,2013-02-18 21:54:00,
2013-02-18 17:09:00,25.3,6.5,30.08,West,270,2.2,-999.0,44,-99.99,,,0.00,Acu-Link.com,2013-02-18 22:09:00,
2013-02-18 17:24:00,23.2,5.5,30.09,NW,315,0.0,-999.0,46,-99.99,,,0.00,Acu-Link.com,2013-02-18 22:24:00,
2013-02-18 17:39:00,21.4,5.7,30.08,NE,45,0.0,-999.0,50,-99.99,,,0.00,Acu-Link.com,2013-02-18 22:39:00,
2013-02-18 17:55:00,20.1,5.3,30.08,ESE,112,0.0,-999.0,52,-99.99,,,0.00,Acu-Link.com,2013-02-18 22:55:00,
2013-02-18 18:10:00,18.9,6.6,30.07,ESE,112,0.0,-999.0,58,-99.99,,,0.00,Acu-Link.com,2013-02-18 23:10:00,
2013-02-18 18:25:00,17.8,5.6,30.06,East,90,0.0,-999.0,58,-99.99,,,0.00,Acu-Link.com,2013-02-18 23:25:00,
2013-02-18 18:40:00,16.9,6.2,30.06,ESE,112,0.0,-999.0,62,-99.99,,,0.00,Acu-Link.com,2013-02-18 23:40:00,
2013-02-18 18:55:00,16.0,5.3,30.07,East,90,0.0,-999.0,62,-99.99,,,0.00,Acu-Link.com,2013-02-18 23:55:00,
2013-02-18 19:10:00,15.4,6.4,30.07,SE,135,0.0,-999.0,67,-99.99,,,0.00,Acu-Link.com,2013-02-19 00:10:00,
2013-02-18 19:25:00,15.1,6.5,30.07,ESE,112,0.0,-999.0,68,-99.99,,,0.00,Acu-Link.com,2013-02-19 00:25:00,
2013-02-18 19:40:00,14.7,6.1,30.06,ESE,112,0.0,-999.0,68,-99.99,,,0.00,Acu-Link.com,2013-02-19 00:40:00,
2013-02-18 19:55:00,14.5,6.5,30.04,East,90,0.0,-999.0,70,-99.99,,,0.00,Acu-Link.com,2013-02-19 00:55:00,
2013-02-18 20:11:00,14.5,6.8,30.04,North,0,1.1,-999.0,71,-99.99,,,0.00,Acu-Link.com,2013-02-19 01:11:00,
2013-02-18 20:26:00,14.5,6.5,30.03,NE,45,2.2,-999.0,70,-99.99,,,0.00,Acu-Link.com,2013-02-19 01:26:00,
2013-02-18 20:41:00,15.1,6.1,30.02,NNE,22,1.7,-999.0,67,-99.99,,,0.00,Acu-Link.com,2013-02-19 01:41:00,
2013-02-18 20:56:00,15.8,6.2,30.01,NNE,22,1.1,-999.0,65,-99.99,,,0.00,Acu-Link.com,2013-02-19 01:56:00,
2013-02-18 21:11:00,16.3,6.3,30.01,ESE,112,0.0,-999.0,64,-99.99,,,0.00,Acu-Link.com,2013-02-19 02:11:00,
2013-02-18 21:26:00,16.5,6.1,30.00,NNW,337,2.2,-999.0,63,-99.99,,,0.00,Acu-Link.com,2013-02-19 02:26:00,
2013-02-18 21:41:00,16.5,6.1,29.99,NE,45,1.7,-999.0,63,-99.99,,,0.00,Acu-Link.com,2013-02-19 02:41:00,
2013-02-18 21:56:00,17.4,7.0,29.98,East,90,1.7,-999.0,63,-99.99,,,0.00,Acu-Link.com,2013-02-19 02:56:00,
2013-02-18 22:12:00,18.3,6.8,29.99,ESE,112,1.1,-999.0,60,-99.99,,,0.00,Acu-Link.com,2013-02-19 03:12:00,
2013-02-18 22:27:00,18.5,6.6,29.98,NNE,22,1.7,-999.0,59,-99.99,,,0.00,Acu-Link.com,2013-02-19 03:27:00,
2013-02-18 22:42:00,18.5,6.6,29.98,ENE,67,1.7,-999.0,59,-99.99,,,0.00,Acu-Link.com,2013-02-19 03:42:00,
2013-02-18 22:57:00,18.3,6.0,29.98,ENE,67,3.7,-999.0,58,-99.99,,,0.00,Acu-Link.com,2013-02-19 03:57:00,
2013-02-18 23:12:00,18.3,6.0,29.98,ENE,67,2.7,-999.0,58,-99.99,,,0.00,Acu-Link.com,2013-02-19 04:12:00,
2013-02-18 23:27:00,18.3,5.7,29.98,NNE,22,2.7,-999.0,57,-99.99,,,0.00,Acu-Link.com,2013-02-19 04:27:00,
2013-02-18 23:42:00,18.3,5.7,29.98,ENE,67,3.2,-999.0,57,-99.99,,,0.00,Acu-Link.com,2013-02-19 04:42:00,
2013-02-18 23:57:00,18.5,6.2,29.98,ENE,67,2.2,-999.0,58,-99.99,,,0.00,Acu-Link.com,2013-02-19 04:57:00,